Time;durP1;ratioP1;P1;durP2;ratioP2;P2;SDS_P1;SDS_P2;PMS_P1;PMS_P2;Temp;Humidity;BMP_temperature;BMP_pressure;BME280_temperature;BME280_humidity;BME280_pressure;Samples;Min_cycle;Max_cycle;Signal;HPM_P1;HPM_P2
2023/01/16 03:01:48;;;;;;;9.43;8.83;;;2.70;99.90;;;;;;5491568;23;20280;-77
2023/01/16 03:04:45;;;;;;;9.00;8.40;;;2.70;99.90;;;;;;4970556;28;20786;-78
2023/01/16 03:07:37;;;;;;;9.53;8.83;;;2.70;99.90;;;;;;4970657;28;20197;-78
2023/01/16 03:10:30;;;;;;;8.97;8.30;;;2.70;99.90;;;;;;4970538;28;20441;-77
2023/01/16 03:13:08;;;;;;;9.53;8.80;;;2.70;99.90;;;;;;4951610;29;20826;-79
2023/01/16 03:15:45;;;;;;;8.63;8.13;;;2.70;99.90;;;;;;4952032;29;20223;-78
2023/01/16 03:18:24;;;;;;;9.70;8.77;;;2.70;99.90;;;;;;4950182;28;20461;-78
2023/01/16 03:20:57;;;;;;;9.17;8.37;;;2.60;99.90;;;;;;4949776;28;20525;-78
2023/01/16 03:23:32;;;;;;;8.70;8.10;;;2.60;99.90;;;;;;4951183;28;20442;-78
2023/01/16 03:26:02;;;;;;;8.70;8.20;;;2.60;99.90;;;;;;4948971;28;20206;-79
2023/01/16 03:28:36;;;;;;;9.67;8.80;;;2.70;99.90;;;;;;4947631;29;20786;-78
2023/01/16 03:31:12;;;;;;;9.77;9.00;;;2.70;99.90;;;;;;4945682;29;20277;-78
2023/01/16 03:33:47;;;;;;;9.27;8.47;;;2.60;99.90;;;;;;4951581;28;20814;-79
2023/01/16 03:36:18;;;;;;;9.20;8.63;;;2.70;99.90;;;;;;4953339;29;20467;-79
2023/01/16 03:38:46;;;;;;;9.73;8.93;;;2.70;99.90;;;;;;4953089;29;20439;-78
2023/01/16 03:41:19;;;;;;;8.80;8.10;;;2.80;99.90;;;;;;4950572;28;20481;-81
2023/01/16 03:43:49;;;;;;;8.93;8.13;;;2.70;99.90;;;;;;4950753;28;20442;-78
2023/01/16 03:46:19;;;;;;;8.73;8.00;;;2.80;99.90;;;;;;4946292;28;21026;-76
2023/01/16 03:48:52;;;;;;;9.10;8.40;;;2.80;99.90;;;;;;4947893;29;20447;-77
2023/01/16 03:51:30;;;;;;;8.90;8.40;;;2.80;99.90;;;;;;4945519;28;20534;-80
2023/01/16 03:54:03;;;;;;;8.97;8.13;;;2.80;99.90;;;;;;4956342;28;20198;-81
2023/01/16 03:56:35;;;;;;;9.40;8.50;;;2.90;99.90;;;;;;4938997;29;20482;-81
2023/01/16 03:59:02;;;;;;;8.80;8.20;;;2.90;99.90;;;;;;4943146;29;20379;-81
2023/01/16 04:01:37;;;;;;;8.67;8.17;;;3.00;99.90;;;;;;4947755;29;20737;-82
2023/01/16 04:04:08;;;;;;;9.43;8.83;;;3.00;99.90;;;;;;4943868;29;20635;-82
2023/01/16 04:06:42;;;;;;;8.93;8.40;;;3.00;99.90;;;;;;4944525;28;20601;-81
2023/01/16 04:09:13;;;;;;;9.60;8.80;;;3.00;99.90;;;;;;4940130;29;20642;-81
2023/01/16 04:11:40;;;;;;;9.50;8.87;;;3.00;99.90;;;;;;4938570;29;20900;-80
2023/01/16 04:14:10;;;;;;;9.83;9.03;;;2.90;99.90;;;;;;4947137;29;20649;-81
2023/01/16 04:16:38;;;;;;;9.60;9.10;;;2.90;99.90;;;;;;4942853;29;20734;-81
2023/01/16 04:19:07;;;;;;;9.70;9.10;;;2.90;99.90;;;;;;4939420;28;20244;-79
2023/01/16 04:21:34;;;;;;;9.57;8.90;;;2.90;99.90;;;;;;4948958;28;20983;-80
2023/01/16 04:24:02;;;;;;;9.33;8.83;;;2.90;99.90;;;;;;4948841;29;20300;-80
2023/01/16 04:26:28;;;;;;;10.40;9.50;;;2.90;99.90;;;;;;4946083;29;20544;-81
2023/01/16 04:28:55;;;;;;;9.40;8.90;;;2.90;99.90;;;;;;4948617;28;20199;-81
2023/01/16 04:31:24;;;;;;;9.50;8.90;;;2.90;99.90;;;;;;4938608;28;20226;-83
2023/01/16 04:33:51;;;;;;;9.13;8.60;;;2.90;99.90;;;;;;4946928;28;20571;-81
2023/01/16 04:36:19;;;;;;;9.07;8.57;;;2.90;99.90;;;;;;4944681;29;20279;-80
2023/01/16 04:38:46;;;;;;;9.70;9.10;;;2.90;99.90;;;;;;4936221;29;20656;-82
2023/01/16 04:41:13;;;;;;;9.93;9.33;;;2.90;99.90;;;;;;4945165;29;20228;-81
2023/01/16 04:43:39;;;;;;;9.57;8.93;;;2.80;99.90;;;;;;4948125;28;20951;-82
2023/01/16 04:46:06;;;;;;;9.70;9.10;;;2.80;99.90;;;;;;4945224;28;20223;-81
2023/01/16 04:48:33;;;;;;;9.37;8.87;;;2.80;99.90;;;;;;4946564;29;20618;-82
2023/01/16 04:51:00;;;;;;;10.30;9.70;;;2.80;99.90;;;;;;4948334;29;20223;-81
2023/01/16 04:53:28;;;;;;;9.70;9.10;;;2.80;99.90;;;;;;4941259;29;20207;-81
2023/01/16 04:55:55;;;;;;;9.60;9.00;;;2.80;99.90;;;;;;4947954;28;20466;-82
2023/01/16 04:58:22;;;;;;;9.90;9.30;;;2.80;99.90;;;;;;4945554;28;20196;-81
2023/01/16 05:00:49;;;;;;;10.77;9.87;;;2.80;99.90;;;;;;4943383;28;20850;-82
2023/01/16 05:03:15;;;;;;;9.93;9.20;;;2.70;99.90;;;;;;4947391;29;20274;-81
2023/01/16 05:05:43;;;;;;;9.97;9.17;;;2.70;99.90;;;;;;4941812;29;20466;-82
2023/01/16 05:10:55;;;;;;;9.60;9.10;;;2.60;99.90;;;;;;4951341;29;20529;-82
2023/01/16 05:13:22;;;;;;;9.90;9.30;;;2.60;99.90;;;;;;4944981;28;20211;-82
2023/01/16 05:15:49;;;;;;;10.27;9.60;;;2.60;99.90;;;;;;4944324;29;20259;-82
2023/01/16 05:18:16;;;;;;;10.50;9.80;;;2.60;99.90;;;;;;4952383;29;20198;-81
2023/01/16 05:20:44;;;;;;;10.37;9.67;;;2.60;99.90;;;;;;4938212;29;20210;-82
2023/01/16 05:23:11;;;;;;;10.13;9.43;;;2.60;99.90;;;;;;4942658;29;20859;-82
2023/01/16 05:25:38;;;;;;;10.40;9.57;;;2.60;99.90;;;;;;4947026;29;20261;-81
2023/01/16 05:28:07;;;;;;;10.00;9.40;;;2.60;99.90;;;;;;4947002;28;20195;-81
2023/01/16 05:30:33;;;;;;;10.73;10.03;;;2.60;99.90;;;;;;4942690;29;20267;-80
2023/01/16 05:33:01;;;;;;;10.20;9.47;;;2.50;99.90;;;;;;4941391;29;20557;-82
2023/01/16 05:35:28;;;;;;;11.40;10.33;;;2.50;99.90;;;;;;4944770;28;20467;-78
2023/01/16 05:37:55;;;;;;;10.70;10.00;;;2.50;99.90;;;;;;4946410;29;20203;-79
2023/01/16 05:40:22;;;;;;;11.07;10.27;;;2.50;99.90;;;;;;4949570;29;20487;-79
2023/01/16 05:42:48;;;;;;;10.73;10.13;;;2.50;99.90;;;;;;4953749;29;20222;-79
2023/01/16 05:45:17;;;;;;;10.77;9.97;;;2.40;99.90;;;;;;4948160;28;20450;-80
2023/01/16 05:47:45;;;;;;;12.50;10.40;;;2.40;99.90;;;;;;4944675;28;20585;-79
2023/01/16 05:50:12;;;;;;;10.70;10.00;;;2.40;99.90;;;;;;4950384;29;20210;-79
2023/01/16 05:52:39;;;;;;;11.30;10.60;;;2.40;99.90;;;;;;4949144;29;20218;-79
2023/01/16 05:55:06;;;;;;;11.03;10.37;;;2.40;99.90;;;;;;4949171;28;20517;-78
2023/01/16 05:57:33;;;;;;;11.07;10.30;;;2.40;99.90;;;;;;4949628;29;20489;-79
2023/01/16 06:00:00;;;;;;;10.97;10.17;;;2.40;99.90;;;;;;4945450;28;20203;-78
2023/01/16 06:02:28;;;;;;;11.00;10.40;;;2.40;99.90;;;;;;4944386;29;20993;-79
2023/01/16 06:04:55;;;;;;;11.17;10.27;;;2.40;99.90;;;;;;4947292;28;20474;-78
2023/01/16 06:07:22;;;;;;;10.93;10.13;;;2.40;99.90;;;;;;4949565;29;20501;-79
2023/01/16 06:09:49;;;;;;;10.70;9.90;;;2.40;99.90;;;;;;4944366;29;20502;-78
2023/01/16 06:12:17;;;;;;;10.60;10.00;;;2.40;99.90;;;;;;4948241;29;20601;-79
2023/01/16 06:14:44;;;;;;;11.00;10.20;;;2.40;99.90;;;;;;4948323;28;20485;-79
2023/01/16 06:17:14;;;;;;;10.93;10.17;;;2.40;99.90;;;;;;4945368;28;20273;-79
2023/01/16 06:19:42;;;;;;;11.20;10.37;;;2.40;99.90;;;;;;4946393;28;20547;-79
2023/01/16 06:22:08;;;;;;;10.80;10.13;;;2.40;99.90;;;;;;4947172;29;20217;-78
2023/01/16 06:24:35;;;;;;;11.10;10.40;;;2.40;99.90;;;;;;4948778;28;20256;-79
2023/01/16 06:27:02;;;;;;;10.43;9.63;;;2.50;99.90;;;;;;4951006;29;20446;-79
2023/01/16 06:29:29;;;;;;;10.63;9.97;;;2.50;99.90;;;;;;4948620;29;20218;-79
2023/01/16 06:31:56;;;;;;;10.87;10.27;;;2.50;99.90;;;;;;4945979;28;20482;-79
2023/01/16 06:34:23;;;;;;;11.70;10.90;;;2.50;99.90;;;;;;4947025;29;20483;-80
2023/01/16 06:36:51;;;;;;;11.70;10.93;;;2.50;99.90;;;;;;4951778;29;20476;-79
2023/01/16 06:39:18;;;;;;;12.30;11.40;;;2.50;99.90;;;;;;4957031;28;20438;-79
2023/01/16 06:41:45;;;;;;;12.00;11.20;;;2.50;99.90;;;;;;4957130;28;20454;-77
2023/01/16 06:44:12;;;;;;;12.00;11.20;;;2.50;99.90;;;;;;4957305;28;20886;-77
2023/01/16 06:46:39;;;;;;;12.70;11.83;;;2.50;99.90;;;;;;4948067;29;20451;-78
2023/01/16 06:49:05;;;;;;;12.10;11.30;;;2.50;99.90;;;;;;4952799;29;20759;-79
2023/01/16 06:51:32;;;;;;;12.27;11.40;;;2.60;99.90;;;;;;4947115;29;20535;-79
2023/01/16 06:54:02;;;;;;;12.20;11.40;;;2.50;99.90;;;;;;4948031;28;20462;-78
2023/01/16 06:56:29;;;;;;;11.90;11.20;;;2.60;99.90;;;;;;4938431;29;20842;-79
2023/01/16 06:58:56;;;;;;;11.73;11.03;;;2.60;99.90;;;;;;4946416;29;20251;-79
2023/01/16 07:01:23;;;;;;;12.30;11.20;;;2.60;99.90;;;;;;4948767;28;20478;-79
2023/01/16 07:03:50;;;;;;;11.20;10.30;;;2.70;99.90;;;;;;4952685;28;20549;-79
2023/01/16 07:06:17;;;;;;;11.50;10.80;;;2.70;99.90;;;;;;4954632;29;20450;-80
2023/01/16 07:08:44;;;;;;;12.07;11.07;;;2.80;99.90;;;;;;4946537;29;20796;-80
2023/01/16 07:11:12;;;;;;;11.40;10.60;;;2.80;99.90;;;;;;4941877;28;20471;-80
2023/01/16 07:13:39;;;;;;;10.90;10.20;;;2.90;99.90;;;;;;4948392;28;20207;-81
2023/01/16 07:24:21;;;;;;;10.77;10.17;;;2.90;99.90;;;;;;4937609;29;20576;-79
2023/01/16 07:26:57;;;;;;;9.87;9.33;;;3.00;99.90;;;;;;4941635;29;20467;-77
2023/01/16 07:29:24;;;;;;;10.80;9.90;;;2.90;99.90;;;;;;4954265;28;20716;-81
2023/01/16 07:31:51;;;;;;;10.27;9.57;;;3.00;99.90;;;;;;4946718;29;20235;-78
2023/01/16 07:34:18;;;;;;;9.70;9.00;;;3.00;99.90;;;;;;4946921;29;20443;-78
2023/01/16 07:36:45;;;;;;;11.10;10.30;;;3.10;99.90;;;;;;4945693;29;20507;-78
2023/01/16 07:39:12;;;;;;;9.67;9.17;;;3.10;99.90;;;;;;4947938;29;20265;-78
2023/01/16 07:41:39;;;;;;;10.00;9.40;;;3.20;99.90;;;;;;4945314;29;20230;-77
2023/01/16 07:44:09;;;;;;;10.30;9.60;;;3.20;99.90;;;;;;4946669;29;20203;-79
2023/01/16 07:46:37;;;;;;;9.90;9.33;;;3.20;99.90;;;;;;4945998;29;20195;-78
2023/01/16 07:49:03;;;;;;;10.30;9.70;;;3.20;99.90;;;;;;4944654;29;20230;-80
2023/01/16 07:51:30;;;;;;;10.23;9.53;;;3.20;99.90;;;;;;4947173;28;20219;-81
2023/01/16 07:53:57;;;;;;;10.03;9.33;;;3.30;99.90;;;;;;4944535;29;20259;-81
2023/01/16 07:56:24;;;;;;;9.60;9.00;;;3.30;99.90;;;;;;4945949;29;20215;-78
2023/01/16 07:58:54;;;;;;;9.70;9.10;;;3.30;99.90;;;;;;4945025;29;20203;-82
2023/01/16 08:01:22;;;;;;;9.70;9.20;;;3.40;99.90;;;;;;4946529;29;20278;-81
2023/01/16 08:03:49;;;;;;;9.80;9.20;;;3.40;99.90;;;;;;4947774;29;20249;-82
2023/01/16 08:06:15;;;;;;;9.80;9.30;;;3.40;99.90;;;;;;4945082;28;20215;-82
2023/01/16 08:08:43;;;;;;;10.67;9.87;;;3.40;99.90;;;;;;4944501;28;20196;-80
2023/01/16 08:13:50;;;;;;;10.27;9.60;;;3.50;99.90;;;;;;4950680;29;20661;-80
2023/01/16 08:16:17;;;;;;;10.43;9.73;;;3.60;99.90;;;;;;4951114;29;20195;-81
2023/01/16 08:18:48;;;;;;;9.73;9.20;;;3.50;99.90;;;;;;4942295;29;20971;-80
2023/01/16 08:21:17;;;;;;;10.20;9.50;;;3.60;99.90;;;;;;4941592;29;20218;-81
2023/01/16 08:23:44;;;;;;;10.33;9.53;;;3.60;99.90;;;;;;4944033;29;20210;-81
2023/01/16 08:26:11;;;;;;;9.77;9.10;;;3.60;99.90;;;;;;4945922;28;20208;-81
2023/01/16 08:28:38;;;;;;;10.40;9.40;;;3.70;99.90;;;;;;4941590;28;20664;-81
2023/01/16 08:31:07;;;;;;;9.70;9.20;;;3.60;99.90;;;;;;4944912;29;20567;-82
2023/01/16 08:33:35;;;;;;;10.00;9.40;;;3.70;99.90;;;;;;4946145;29;20675;-81
2023/01/16 08:36:03;;;;;;;10.37;9.40;;;3.70;99.90;;;;;;4949107;28;20807;-80
2023/01/16 08:38:31;;;;;;;9.70;9.10;;;3.70;99.90;;;;;;4945276;29;20932;-80
2023/01/16 08:40:57;;;;;;;10.50;9.77;;;3.70;99.90;;;;;;4945861;29;20278;-82
2023/01/16 08:51:50;;;;;;;10.00;9.30;;;3.80;99.90;;;;;;4944885;29;20223;-82
2023/01/16 08:54:17;;;;;;;10.00;9.40;;;3.80;99.90;;;;;;4948194;29;20202;-82
2023/01/16 08:56:44;;;;;;;9.67;9.07;;;3.90;99.90;;;;;;4945343;29;20683;-82
2023/01/16 08:59:11;;;;;;;9.80;9.20;;;3.90;99.90;;;;;;4944462;29;20632;-82
2023/01/16 09:01:38;;;;;;;9.10;8.60;;;3.90;99.90;;;;;;4948520;28;20222;-82
2023/01/16 09:04:05;;;;;;;9.67;9.03;;;4.00;99.90;;;;;;4946891;28;20716;-82
2023/01/16 09:06:35;;;;;;;9.80;9.20;;;4.00;99.90;;;;;;4943451;29;20249;-82
2023/01/16 09:09:05;;;;;;;9.77;9.17;;;4.00;99.90;;;;;;4940019;29;20199;-80
2023/01/16 09:14:16;;;;;;;9.30;8.80;;;4.10;99.90;;;;;;4935778;29;20282;-82
2023/01/16 09:16:43;;;;;;;9.20;8.70;;;4.10;99.90;;;;;;4947794;29;20207;-81
2023/01/16 09:19:10;;;;;;;9.77;9.10;;;4.10;99.90;;;;;;4952122;28;20202;-82
2023/01/16 09:21:37;;;;;;;9.47;8.87;;;4.10;99.90;;;;;;4936798;29;20226;-81
2023/01/16 09:24:07;;;;;;;9.50;9.00;;;4.10;99.90;;;;;;4949869;28;20230;-81
2023/01/16 09:26:34;;;;;;;9.43;8.80;;;4.00;99.90;;;;;;4948046;28;20210;-81
2023/01/16 09:29:00;;;;;;;9.20;8.67;;;4.10;99.90;;;;;;4945951;28;20210;-81
2023/01/16 09:31:27;;;;;;;9.80;8.87;;;4.10;99.90;;;;;;4935735;29;20248;-82
2023/01/16 09:33:54;;;;;;;9.40;8.80;;;4.00;99.90;;;;;;4944068;29;20270;-82
2023/01/16 09:36:21;;;;;;;9.67;9.07;;;4.00;99.90;;;;;;4947648;29;20604;-81
2023/01/16 09:38:48;;;;;;;9.53;8.97;;;4.10;99.90;;;;;;4943809;29;20211;-81
2023/01/16 09:43:35;;;;;;;9.60;9.00;;;4.10;99.90;;;;;;4943148;29;20730;-81
2023/01/16 09:44:08;;;;;;;9.37;8.87;;;4.20;99.90;;;;;;4936480;29;20199;-82
2023/01/16 09:46:39;;;;;;;9.40;8.80;;;4.20;99.90;;;;;;4945011;28;20254;-81
2023/01/16 09:49:18;;;;;;;8.87;8.37;;;4.30;99.90;;;;;;4943868;29;20208;-82
2023/01/16 09:58:35;;;;;;;9.50;9.00;;;4.40;99.90;;;;;;4944981;28;20223;-82
2023/01/16 10:00:31;;;;;;;9.60;9.03;;;4.50;99.90;;;;;;4945060;29;20198;-82
2023/01/16 10:02:58;;;;;;;9.30;8.80;;;4.50;99.90;;;;;;4947363;28;20207;-81
2023/01/16 10:05:31;;;;;;;9.37;8.77;;;4.60;99.90;;;;;;4947231;29;20199;-81
2023/01/16 10:08:06;;;;;;;9.70;9.10;;;4.60;99.90;;;;;;4945518;29;20663;-81
2023/01/16 10:10:44;;;;;;;9.47;8.80;;;4.70;99.90;;;;;;4940722;29;20202;-82
2023/01/16 10:13:28;;;;;;;9.60;8.93;;;4.80;99.90;;;;;;4946473;28;20202;-82
2023/01/16 10:16:06;;;;;;;9.07;8.57;;;4.80;99.90;;;;;;4943019;29;20202;-81
2023/01/16 10:18:50;;;;;;;9.20;8.50;;;4.90;99.90;;;;;;4956355;28;20215;-80
2023/01/16 10:21:42;;;;;;;9.53;8.93;;;5.00;99.90;;;;;;4946563;29;20225;-81
2023/01/16 10:24:18;;;;;;;9.37;8.77;;;5.10;99.90;;;;;;4947185;28;20198;-81
2023/01/16 10:26:56;;;;;;;8.90;8.40;;;5.10;99.90;;;;;;4946524;29;20254;-79
2023/01/16 10:29:31;;;;;;;9.40;8.80;;;5.20;99.90;;;;;;4948087;29;20199;-80
2023/01/16 10:32:02;;;;;;;9.10;8.60;;;5.30;99.90;;;;;;4946772;29;20308;-82
2023/01/16 10:34:34;;;;;;;9.27;8.67;;;5.30;99.90;;;;;;4943889;29;20207;-81
2023/01/16 10:37:01;;;;;;;9.10;8.40;;;5.40;99.90;;;;;;4946293;28;20243;-81
2023/01/16 10:39:33;;;;;;;8.70;8.20;;;5.50;99.90;;;;;;4945356;29;20225;-81
2023/01/16 10:50:31;;;;;;;8.73;8.23;;;5.80;99.90;;;;;;4946177;29;20209;-81
2023/01/16 10:52:58;;;;;;;8.53;8.10;;;5.80;99.90;;;;;;4951169;28;20206;-81
2023/01/16 10:55:25;;;;;;;8.67;8.07;;;5.90;99.90;;;;;;4947669;28;20234;-81
2023/01/16 10:57:54;;;;;;;8.50;8.10;;;6.00;99.90;;;;;;4946796;29;20223;-81
2023/01/16 11:00:29;;;;;;;9.10;8.60;;;6.00;99.90;;;;;;4953337;29;20227;-82
2023/01/16 11:02:59;;;;;;;8.57;8.07;;;6.10;99.90;;;;;;4949409;29;20218;-80
2023/01/16 11:05:28;;;;;;;8.90;8.20;;;6.10;99.90;;;;;;4942901;28;20203;-81
2023/01/16 11:07:57;;;;;;;8.70;8.20;;;6.10;99.90;;;;;;4950800;28;20291;-82
2023/01/16 11:10:24;;;;;;;8.70;8.20;;;6.20;99.90;;;;;;4943212;29;20199;-82
2023/01/16 11:18:31;;;;;;;8.70;8.20;;;6.10;99.90;;;;;;4947265;28;20232;-80
2023/01/16 11:21:00;;;;;;;9.37;8.67;;;6.00;99.90;;;;;;4952249;29;20215;-81
2023/01/16 11:23:34;;;;;;;8.90;8.40;;;6.00;99.90;;;;;;4947647;29;20207;-81
2023/01/16 11:26:01;;;;;;;9.20;8.70;;;6.00;99.90;;;;;;4950927;28;20192;-82
2023/01/16 11:28:30;;;;;;;8.80;8.30;;;5.90;99.90;;;;;;4945150;29;20256;-80
2023/01/16 11:31:01;;;;;;;9.13;8.53;;;6.00;99.90;;;;;;4945140;29;20230;-82
2023/01/16 11:33:34;;;;;;;9.00;8.40;;;5.90;99.90;;;;;;4947610;29;20233;-80
2023/01/16 11:36:04;;;;;;;8.63;8.17;;;5.80;99.90;;;;;;4951558;29;20739;-82
2023/01/16 11:38:35;;;;;;;9.00;8.50;;;5.80;99.90;;;;;;4941491;29;20283;-81
2023/01/16 11:41:03;;;;;;;8.53;8.07;;;5.90;99.90;;;;;;4942704;29;20228;-80
2023/01/16 11:46:31;;;;;;;8.50;8.10;;;6.00;99.90;;;;;;4937848;29;20201;-81
2023/01/16 11:49:01;;;;;;;9.10;8.30;;;6.00;99.90;;;;;;4940683;29;20264;-82
2023/01/16 11:51:30;;;;;;;8.90;8.40;;;6.10;99.90;;;;;;4946548;29;20221;-82
2023/01/16 11:53:58;;;;;;;8.90;8.40;;;6.10;99.90;;;;;;4944186;29;20197;-82
2023/01/16 11:56:44;;;;;;;9.17;8.67;;;6.40;99.90;;;;;;4947676;28;20204;-81
2023/01/16 11:59:28;;;;;;;9.20;8.70;;;6.50;99.90;;;;;;4941239;28;20229;-86
2023/01/16 12:02:19;;;;;;;9.83;9.13;;;6.50;99.90;;;;;;4948482;28;20286;-80
2023/01/16 12:07:42;;;;;;;9.60;9.10;;;6.70;99.90;;;;;;4939256;29;20206;-80
2023/01/16 12:10:39;;;;;;;9.17;8.57;;;6.70;99.90;;;;;;4949942;29;20204;-82
2023/01/16 12:16:04;;;;;;;9.93;9.30;;;6.70;99.90;;;;;;4946516;29;20205;-80
2023/01/16 12:18:42;;;;;;;9.33;8.83;;;6.80;99.90;;;;;;4942270;29;20720;-80
2023/01/16 12:21:22;;;;;;;9.63;9.13;;;6.70;99.90;;;;;;4945553;28;20229;-83
2023/01/16 12:24:04;;;;;;;9.50;8.90;;;6.80;99.90;;;;;;4943097;28;20249;-78
2023/01/16 12:26:37;;;;;;;9.53;9.03;;;6.80;99.90;;;;;;4944503;29;20621;-80
2023/01/16 12:29:16;;;;;;;9.67;8.97;;;6.90;99.90;;;;;;4945198;29;20204;-79
2023/01/16 12:31:59;;;;;;;9.50;8.90;;;6.90;99.90;;;;;;4942279;29;20230;-79
2023/01/16 12:34:54;;;;;;;9.63;9.13;;;7.00;99.90;;;;;;4944791;29;20211;-79
2023/01/16 12:37:37;;;;;;;9.50;9.00;;;7.00;99.90;;;;;;4947509;29;20205;-79
2023/01/16 12:40:20;;;;;;;9.90;9.30;;;7.00;99.90;;;;;;4939931;28;20702;-78
2023/01/16 12:45:48;;;;;;;9.20;8.70;;;7.10;99.90;;;;;;4944562;29;20198;-77
2023/01/16 12:48:42;;;;;;;9.20;8.60;;;7.20;99.90;;;;;;4948802;28;20261;-78
2023/01/16 12:51:34;;;;;;;9.00;8.50;;;7.30;99.90;;;;;;4945371;29;20218;-79
2023/01/16 12:54:34;;;;;;;8.90;8.40;;;7.40;99.90;;;;;;4938623;29;20254;-80
2023/01/16 12:57:26;;;;;;;8.97;8.47;;;7.40;99.90;;;;;;4936143;29;20257;-80
2023/01/16 12:59:57;;;;;;;9.33;8.53;;;7.50;99.90;;;;;;4934637;29;20195;-79
2023/01/16 13:02:34;;;;;;;9.20;8.70;;;7.50;99.90;;;;;;4936035;29;20595;-79
2023/01/16 13:05:04;;;;;;;9.20;8.70;;;7.50;99.90;;;;;;4945113;29;20214;-80
2023/01/16 13:07:35;;;;;;;9.60;9.00;;;7.50;99.90;;;;;;4916682;29;20206;-80
2023/01/16 13:15:46;;;;;;;9.70;9.10;;;7.50;99.90;;;;;;4919708;29;20743;-80
2023/01/16 13:18:20;;;;;;;9.37;8.70;;;7.50;99.90;;;;;;4924724;29;20283;-79
2023/01/16 13:20:51;;;;;;;9.47;8.83;;;7.50;99.90;;;;;;4928017;29;20223;-80
2023/01/16 13:23:24;;;;;;;9.07;8.57;;;7.40;99.90;;;;;;4924560;29;20267;-80
2023/01/16 13:25:57;;;;;;;9.30;8.80;;;7.40;99.90;;;;;;4923572;29;20223;-79
2023/01/16 13:28:31;;;;;;;9.03;8.33;;;7.40;99.90;;;;;;4923812;29;20578;-80
2023/01/16 13:31:03;;;;;;;8.87;8.37;;;7.50;99.90;;;;;;4924337;29;20221;-81
2023/01/16 13:33:33;;;;;;;9.23;8.43;;;7.50;99.90;;;;;;4924726;29;20200;-77
2023/01/16 13:36:06;;;;;;;8.30;7.90;;;7.50;99.90;;;;;;4924162;29;20255;-77
2023/01/16 13:38:53;;;;;;;8.60;8.10;;;7.60;99.90;;;;;;4919492;29;20648;-76
2023/01/16 13:41:23;;;;;;;8.50;8.00;;;7.70;99.90;;;;;;4922139;29;20223;-77
2023/01/16 13:46:41;;;;;;;8.63;8.17;;;8.00;99.90;;;;;;4921796;29;20198;-79
2023/01/16 13:49:14;;;;;;;8.77;8.30;;;7.90;99.90;;;;;;4926730;29;20258;-78
2023/01/16 13:51:45;;;;;;;8.93;8.43;;;8.00;99.90;;;;;;4927180;29;20218;-79
2023/01/16 13:54:18;;;;;;;9.00;8.50;;;7.90;99.90;;;;;;4920247;29;20204;-79
2023/01/16 13:56:57;;;;;;;8.77;8.27;;;7.80;99.90;;;;;;4924998;29;20195;-78
2023/01/16 13:59:41;;;;;;;8.53;8.10;;;7.70;99.90;;;;;;4929045;29;20255;-79
2023/01/16 14:02:27;;;;;;;8.93;8.43;;;7.60;99.90;;;;;;4922269;29;20357;-78
2023/01/16 14:05:24;;;;;;;8.93;8.43;;;7.40;99.90;;;;;;4926160;29;20270;-79
2023/01/16 14:11:05;;;;;;;8.90;8.20;;;7.20;99.90;;;;;;4926967;29;20222;-78
2023/01/16 14:13:37;;;;;;;8.80;8.30;;;7.10;99.90;;;;;;4928081;29;20199;-78
2023/01/16 14:16:35;;;;;;;9.00;8.50;;;7.20;99.90;;;;;;4931604;29;20207;-79
2023/01/16 14:19:03;;;;;;;8.90;8.40;;;7.20;99.90;;;;;;4931625;29;20243;-78
2023/01/16 14:21:42;;;;;;;9.37;8.47;;;7.30;99.90;;;;;;4929631;29;20873;-79
2023/01/16 14:24:16;;;;;;;8.77;8.27;;;7.30;99.90;;;;;;4933536;29;20198;-78
2023/01/16 14:26:50;;;;;;;8.80;8.27;;;7.30;99.90;;;;;;4931155;29;20206;-78
2023/01/16 14:29:21;;;;;;;9.10;8.43;;;7.20;99.90;;;;;;4930617;29;20200;-80
2023/01/16 14:31:53;;;;;;;8.80;8.30;;;7.20;99.90;;;;;;4931162;29;20313;-81
2023/01/16 14:34:23;;;;;;;8.60;8.00;;;7.20;99.90;;;;;;4935582;29;20206;-78
2023/01/16 14:36:53;;;;;;;8.57;8.07;;;7.20;99.90;;;;;;4935937;29;20573;-79
2023/01/16 14:39:29;;;;;;;8.30;7.90;;;7.10;99.90;;;;;;4935273;29;20286;-78
2023/01/16 14:56:33;;;;;;;8.53;8.03;;;6.80;99.90;;;;;;4928179;29;20256;-79
2023/01/16 14:59:06;;;;;;;8.83;8.27;;;6.70;99.90;;;;;;4929378;29;20225;-79
2023/01/16 15:04:29;;;;;;;8.70;8.10;;;6.50;99.90;;;;;;4938682;29;20294;-79
2023/01/16 15:06:59;;;;;;;8.70;8.20;;;6.40;99.90;;;;;;4939119;29;20601;-78
2023/01/16 15:09:28;;;;;;;9.60;9.00;;;6.30;99.90;;;;;;4929895;29;20198;-76
2023/01/16 15:11:59;;;;;;;9.30;8.80;;;6.10;99.90;;;;;;4929590;29;20315;-78
2023/01/16 15:14:29;;;;;;;9.37;8.77;;;6.00;99.90;;;;;;4937721;29;20745;-78
2023/01/16 15:23:00;;;;;;;9.27;8.67;;;5.80;99.90;;;;;;4922829;29;20201;-79
2023/01/16 15:25:54;;;;;;;9.53;8.90;;;5.80;99.90;;;;;;4930699;29;20230;-80
2023/01/16 15:28:28;;;;;;;9.40;8.90;;;5.80;99.90;;;;;;4943539;29;20208;-76
2023/01/16 15:31:00;;;;;;;9.30;8.60;;;5.80;99.90;;;;;;4925442;29;20216;-78
2023/01/16 15:33:46;;;;;;;10.00;9.40;;;5.80;99.90;;;;;;4924442;29;20820;-78
2023/01/16 15:36:23;;;;;;;9.77;9.07;;;5.80;99.90;;;;;;4927527;29;20275;-78
2023/01/16 15:38:53;;;;;;;9.27;8.77;;;5.90;99.90;;;;;;4930816;29;20220;-77
2023/01/16 15:46:32;;;;;;;9.30;8.70;;;5.90;99.90;;;;;;4925244;29;20229;-77
2023/01/16 15:47:36;;;;;;;9.30;8.60;;;6.00;99.90;;;;;;4927979;29;20215;-82
2023/01/16 15:50:21;;;;;;;9.03;8.53;;;6.00;99.90;;;;;;4928593;29;20208;-79
2023/01/16 15:52:48;;;;;;;9.53;9.03;;;5.90;99.90;;;;;;4928360;29;20232;-77
2023/01/16 15:55:19;;;;;;;9.77;9.00;;;5.80;99.90;;;;;;4925303;29;20208;-77
2023/01/16 15:57:48;;;;;;;9.50;8.90;;;5.70;99.90;;;;;;4927470;29;20601;-82
2023/01/16 16:00:31;;;;;;;9.63;9.13;;;5.60;99.90;;;;;;4916308;29;20240;-77
2023/01/16 16:03:02;;;;;;;9.17;8.60;;;5.40;99.90;;;;;;4918124;29;20197;-77
2023/01/16 16:05:30;;;;;;;9.70;9.00;;;5.30;99.90;;;;;;4919890;29;20696;-79
2023/01/16 16:07:57;;;;;;;9.47;8.90;;;5.20;99.90;;;;;;4918401;29;20204;-77
2023/01/16 16:13:16;;;;;;;9.80;9.30;;;5.00;99.90;;;;;;4918041;29;20576;-77
2023/01/16 16:18:40;;;;;;;9.90;9.20;;;5.00;99.90;;;;;;4916926;29;20227;-78
2023/01/16 16:21:13;;;;;;;10.67;9.93;;;4.90;99.90;;;;;;4925315;29;20652;-78
2023/01/16 16:23:41;;;;;;;9.90;9.30;;;4.90;99.90;;;;;;4924195;29;20225;-77
2023/01/16 16:26:15;;;;;;;10.03;9.43;;;4.80;99.90;;;;;;4930281;29;20259;-78
2023/01/16 16:28:42;;;;;;;9.60;9.10;;;4.80;99.90;;;;;;4919728;29;20227;-77
2023/01/16 16:31:15;;;;;;;9.70;9.20;;;4.70;99.90;;;;;;4926952;29;20219;-78
2023/01/16 16:33:52;;;;;;;9.80;9.20;;;4.70;99.90;;;;;;4924893;29;20207;-81
2023/01/16 16:36:19;;;;;;;9.63;9.13;;;4.70;99.90;;;;;;4932448;29;20258;-81
2023/01/16 16:38:50;;;;;;;10.03;9.40;;;4.70;99.90;;;;;;4919789;29;20760;-80
2023/01/16 16:44:39;;;;;;;10.57;9.80;;;4.70;99.90;;;;;;4925482;29;20207;-83
2023/01/16 16:47:23;;;;;;;10.30;9.70;;;4.70;99.90;;;;;;4930746;29;20206;-80
2023/01/16 16:49:51;;;;;;;9.93;9.33;;;4.80;99.90;;;;;;4919216;29;20203;-80
2023/01/16 16:52:37;;;;;;;10.33;9.73;;;4.80;99.90;;;;;;4925348;29;20232;-77
2023/01/16 16:55:05;;;;;;;10.40;9.80;;;4.80;99.90;;;;;;4933628;29;20267;-78
2023/01/16 16:57:42;;;;;;;10.20;9.60;;;4.90;99.90;;;;;;4920470;29;20223;-78
2023/01/16 17:00:16;;;;;;;9.93;9.43;;;4.90;99.90;;;;;;4930853;29;20833;-77
2023/01/16 17:02:43;;;;;;;9.30;8.80;;;4.90;99.90;;;;;;4916203;29;20251;-78
2023/01/16 17:05:18;;;;;;;8.93;8.43;;;5.00;99.90;;;;;;4923469;29;20233;-78
2023/01/16 17:07:45;;;;;;;9.23;8.73;;;5.10;99.90;;;;;;4922219;29;20207;-78
2023/01/16 17:10:13;;;;;;;9.10;8.60;;;5.10;99.90;;;;;;4937766;29;20204;-77
2023/01/16 17:12:40;;;;;;;9.00;8.50;;;5.10;99.90;;;;;;4931126;29;20219;-77
2023/01/16 17:15:09;;;;;;;9.33;8.83;;;5.10;99.90;;;;;;4923968;29;20227;-78
2023/01/16 17:17:41;;;;;;;9.57;9.07;;;5.20;99.90;;;;;;4931004;29;20201;-78
2023/01/16 17:20:19;;;;;;;9.90;9.40;;;5.20;99.90;;;;;;4920130;29;20224;-78
2023/01/16 17:22:47;;;;;;;9.70;9.20;;;5.20;99.90;;;;;;4925366;29;20215;-76
2023/01/16 17:25:21;;;;;;;9.40;8.90;;;5.20;99.90;;;;;;4924857;29;20204;-78
2023/01/16 17:27:49;;;;;;;9.40;8.90;;;5.30;99.90;;;;;;4917910;29;20212;-79
2023/01/16 17:30:16;;;;;;;9.33;8.83;;;5.30;99.90;;;;;;4926462;29;20196;-79
2023/01/16 17:32:44;;;;;;;9.03;8.57;;;5.30;99.90;;;;;;4927520;29;20225;-77
2023/01/16 17:35:15;;;;;;;9.37;8.70;;;5.30;99.90;;;;;;4925524;29;20251;-78
2023/01/16 17:37:43;;;;;;;8.93;8.50;;;5.30;99.90;;;;;;4928849;29;20283;-78
2023/01/16 17:40:11;;;;;;;9.10;8.60;;;5.30;99.90;;;;;;4921637;29;20686;-78
2023/01/16 17:48:14;;;;;;;9.40;8.90;;;5.10;99.90;;;;;;4917862;29;20210;-77
2023/01/16 17:50:41;;;;;;;9.30;8.80;;;5.10;99.90;;;;;;4918687;29;20192;-78
2023/01/16 17:53:13;;;;;;;9.10;8.60;;;5.10;99.90;;;;;;4928326;29;20275;-81
2023/01/16 17:55:52;;;;;;;9.43;8.87;;;5.00;99.90;;;;;;4924352;29;20203;-77
2023/01/16 17:58:38;;;;;;;9.23;8.73;;;5.00;99.90;;;;;;4921466;29;20232;-78
2023/01/16 18:01:07;;;;;;;9.20;8.70;;;5.00;99.90;;;;;;4923981;29;20230;-78
2023/01/16 18:03:34;;;;;;;8.70;8.20;;;5.00;99.90;;;;;;4925463;29;20204;-77
2023/01/16 18:06:02;;;;;;;9.00;8.20;;;4.90;99.90;;;;;;4923229;29;20200;-78